Wilmington, OH

10:54 PM EST on January 29, 2015 (GMT -0500)
Little House On The Prairie | Change Station
CLOSE
Current Station
Personal Weather Station
Location: Wilmington, OH
Elevation: 1043 ft
Nearby Weather Stations
Active Advisory: Special Statement

Elev 1043 ft 39.45 °N, 83.82 °W | Updated 10 seconds ago

Light Freezing Rain
Light Freezing Rain Mist
31.6 °F
Feels Like 24 °F
N
9.2
Wind Variable Wind from NW
Gusts 9.2 mph

Today
High -- | Low -- °F
--% Chance of Precip.
Yesterday
High -- | Low -- °F
Precip. -- in
7:45 AM 5:51 PM
Waxing Gibbous, 79% visible
Pressure 30.12 in
Visibility 2.5 miles
Clouds Overcast 900 ft
Windchill 24 °F
Dew Point 31 °F
Humidity 98%
Rainfall 0.13 in
Snow Depth Not available.
UV 0 out of 12
Pollen .10 out of 12
Air Quality Not available.
Flu Activity Not available.
SPECI KILN 300351Z AUTO 30013KT 2 1/2SM -FZRA BR OVC009 00/M02 A3012 RMK AO2 FZRAB38SNE17 CIG 007V013 P0000 I1002

More Conditions Fewer Conditions

Pressure 30.12 in
Visibility 2.5 miles
Clouds Overcast 900 ft
Windchill 24 °F
Dew Point 31 °F
Humidity 98%
Rainfall 0.13 in
Snow Depth Not available.
UV 0 out of 12
Pollen .10 out of 12
Air Quality Not available.
Flu Activity Not available.
SPECI KILN 300351Z AUTO 30013KT 2 1/2SM -FZRA BR OVC009 00/M02 A3012 RMK AO2 FZRAB38SNE17 CIG 007V013 P0000 I1002

More Conditions Fewer Conditions

10-Day Weather Forecast

Almanac

Astronomy

Jan. 29, 2015 Rise Set
Actual Time
Civil Twilight
Nautical Twilight
Astronomical Twilight
Moon
Length of Visible Light
Length of Day
Tomorrow will be .
, % of the Moon is Illuminated

Today's Extremes

State Highs State Lows

Community

WunderPhotos

Upload Photos

1,791,702 photos uploaded!

WunderBlogs® & News

Nearby

Air Quality

  Air Quality AQ Index Pollutant
Not available.

Snow Depth

Station Depth Elevation

Earthquake Activity

City Distance Mag. Time & Date
Minimum magnitude displayed is 2.5.

Coastal Water Temperatures

Place Temperature

Nearby Weather Stations